createdAt,value
2023-01-19T00:07:23.141Z,94919.69
2023-01-19T00:17:25.621Z,94923.91
2023-01-19T00:27:30.493Z,94931.97
2023-01-19T00:37:32.926Z,94941.06
2023-01-19T00:47:36.847Z,94935.97
2023-01-19T00:57:39.587Z,94939.44
2023-01-19T01:07:45.100Z,94958.56
2023-01-19T01:17:48.144Z,94952.06
2023-01-19T01:27:52.397Z,94955.34
2023-01-19T01:37:58.615Z,94958.91
2023-01-19T01:48:05.061Z,94960.72
2023-01-19T01:58:09.662Z,94959.09
2023-01-19T02:08:34.028Z,94962.53
2023-01-19T02:18:37.185Z,94957.25
2023-01-19T02:28:43.608Z,94955.41
2023-01-19T02:38:46.774Z,94956.63
2023-01-19T02:48:50.603Z,94966.28
2023-01-19T02:58:58.102Z,94985.78
2023-01-19T03:09:03.644Z,94978.50
2023-01-19T03:19:09.191Z,94977.28
2023-01-19T03:29:13.847Z,94981.22
2023-01-19T03:39:19.891Z,94984.88
2023-01-19T03:49:23.858Z,94978.75
2023-01-19T03:59:26.349Z,94994.53
2023-01-19T04:09:30.234Z,94990.88
2023-01-19T04:19:32.728Z,95002.91
2023-01-19T04:29:36.510Z,94996.50
2023-01-19T04:39:38.928Z,95001.16
2023-01-19T04:49:42.705Z,95007.16
2023-01-19T04:59:45.334Z,95009.22
2023-01-19T05:09:49.119Z,95008.13
2023-01-19T05:19:51.599Z,95025.88
2023-01-19T05:29:55.407Z,95027.19
2023-01-19T05:39:57.833Z,95035.09
2023-01-19T05:50:01.655Z,95046.53
2023-01-19T06:00:04.455Z,95044.81
2023-01-19T06:10:09.317Z,95052.53
2023-01-19T06:20:14.308Z,95064.56
2023-01-19T06:30:18.515Z,95066.75
2023-01-19T06:40:21.061Z,95079.59
2023-01-19T06:50:24.929Z,95076.34
2023-01-19T07:00:27.623Z,95072.59
2023-01-19T07:11:25.347Z,95083.19
2023-01-19T07:20:54.168Z,95084.28
2023-01-19T07:30:58.487Z,95088.25
2023-01-19T07:41:01.269Z,95093.41
2023-01-19T07:51:09.878Z,95101.25
2023-01-19T08:01:14.731Z,95115.66
2023-01-19T08:11:18.614Z,95126.50
2023-01-19T08:21:21.383Z,95137.06
2023-01-19T08:31:25.610Z,95128.69
2023-01-19T08:41:28.130Z,95138.22
2023-01-19T08:51:32.032Z,95148.75
2023-01-19T09:01:34.542Z,95149.50
2023-01-19T09:11:38.384Z,95154.75
2023-01-19T09:21:40.977Z,95165.22
2023-01-19T09:31:45.585Z,95174.69
2023-01-19T09:41:50.050Z,95171.81
2023-01-19T09:51:53.942Z,95169.78
2023-01-19T10:02:03.702Z,95175.28
2023-01-19T10:12:11.935Z,95161.72
2023-01-19T10:22:20.470Z,95178.75
2023-01-19T10:32:25.731Z,95153.91
2023-01-19T10:42:30.101Z,95152.53
2023-01-19T10:52:35.506Z,95155.59
2023-01-19T11:02:38.017Z,95149.78
2023-01-19T11:12:43.577Z,95156.53
2023-01-19T11:22:48.571Z,95144.78
2023-01-19T11:32:52.735Z,95161.38
2023-01-19T11:42:55.222Z,95155.50
2023-01-19T11:53:01.247Z,95140.13
2023-01-19T12:03:05.528Z,95132.38
2023-01-19T12:13:14.104Z,95133.22
2023-01-19T12:23:23.798Z,95134.75
2023-01-19T12:33:37.911Z,95137.72
2023-01-19T12:43:40.449Z,95129.56
2023-01-19T12:53:51.636Z,95138.16
2023-01-19T13:04:01.843Z,95137.81
2023-01-19T13:14:25.349Z,95137.72
2023-01-19T13:24:49.091Z,95139.22
2023-01-19T13:34:53.936Z,95139.22
2023-01-19T13:44:59.828Z,95149.19
2023-01-19T13:55:03.910Z,95145.50
2023-01-19T14:05:21.867Z,95160.56
2023-01-19T14:15:24.411Z,95151.44
2023-01-19T14:25:32.130Z,95158.09
2023-01-19T14:35:35.246Z,95150.84
2023-01-19T14:45:41.356Z,95144.16
2023-01-19T14:55:46.724Z,95150.38
2023-01-19T15:05:50.895Z,95139.47
2023-01-19T15:15:53.975Z,95144.53
2023-01-19T15:26:01.334Z,95144.75
2023-01-19T15:36:05.342Z,95144.09
2023-01-19T15:46:11.798Z,95135.00
2023-01-19T15:56:15.121Z,95136.66
2023-01-19T16:06:18.958Z,95137.41
2023-01-19T16:16:22.393Z,95134.13
2023-01-19T16:26:27.849Z,95138.81
2023-01-19T16:36:31.179Z,95142.25
2023-01-19T16:46:36.475Z,95129.91
2023-01-19T16:56:39.112Z,95140.47
2023-01-19T17:06:42.876Z,95148.59
2023-01-19T17:16:45.366Z,95141.88
2023-01-19T17:27:05.044Z,95142.53
2023-01-19T17:37:07.525Z,95140.50
2023-01-19T17:47:11.392Z,95143.53
2023-01-19T17:57:13.855Z,95147.56
2023-01-19T18:07:17.784Z,95149.22
2023-01-19T18:17:20.743Z,95148.63
2023-01-19T18:27:24.501Z,95153.69
2023-01-19T18:37:26.947Z,95154.69
2023-01-19T18:47:30.856Z,95149.84
2023-01-19T18:57:34.841Z,95152.28
2023-01-19T19:07:38.673Z,95161.00
2023-01-19T19:17:41.191Z,95158.38
2023-01-19T19:27:45.491Z,95156.75
2023-01-19T19:37:48.335Z,95160.78
2023-01-19T19:47:52.176Z,95170.91
2023-01-19T19:57:55.136Z,95166.66
2023-01-19T20:07:59.053Z,95181.66
2023-01-19T20:18:01.540Z,95174.16
2023-01-19T20:28:05.576Z,95178.00
2023-01-19T20:38:08.566Z,95179.22
2023-01-19T20:48:12.390Z,95189.34
2023-01-19T20:58:14.823Z,95199.44
2023-01-19T21:08:18.722Z,95200.47
2023-01-19T21:18:21.320Z,95211.94
2023-01-19T21:28:25.809Z,95207.50
2023-01-19T21:38:29.164Z,95203.66
2023-01-19T21:48:33.446Z,95218.63
2023-01-19T21:58:35.996Z,95218.03
2023-01-19T22:08:40.241Z,95223.34
2023-01-19T22:18:43.780Z,95229.41
2023-01-19T22:28:47.582Z,95233.00
2023-01-19T22:38:51.446Z,95237.84
2023-01-19T22:48:55.674Z,95253.78
2023-01-19T22:58:58.899Z,95244.84
2023-01-19T23:09:04.681Z,95245.34
2023-01-19T23:19:07.529Z,95254.63
2023-01-19T23:29:12.996Z,95259.03
2023-01-19T23:39:16.805Z,95265.03
2023-01-19T23:49:20.612Z,95270.06
2023-01-19T23:59:23.052Z,95284.16
